Las Palmasde Grancan — EAJD — position and weather

sailwx.info

Track history (hours):
 
Tides and Currents Weather Stations Pressure Air Temp Water Temp Dewpoint Dewpoint Depression Visibility Wind Speed Wind Dir Waves Ship Positions

Las Palmasde Grancan

Last reported at 2018-Jun-17 21:25 UTC. Time now 2018-Jun-24 04:52 UTC.
Position N 35°51' W 000°39'.

Length 117 m; draft 4.8 m.

Type: Passenger vessel. MMSI: 224646000.

Date/timePositionNaut miles runAvg speedWind from/ knotsBaromVisibWave heightAir tempDewpointWater temp
2018-Jun-17 21:25N 35°51' W 000°39'513.0
2018-Jun-17 21:00N 35°46' W 000°37'4 6.8
2018-Jun-17 20:29N 35°43' W 000°39'0 0.0
2018-Jun-17 20:00N 35°43' W 000°39'0 0.0
2018-Jun-17 19:30N 35°43' W 000°39'0 0.0
2018-Jun-17 19:00N 35°43' W 000°39'0 0.0
2018-Jun-17 18:31N 35°43' W 000°39'0 0.0
2018-Jun-17 18:00N 35°43' W 000°39'0 0.0
2018-Jun-17 15:22N 35°43' W 000°39'0 0.0
2018-Jun-17 14:54N 35°43' W 000°39'0 0.0
2018-Jun-17 14:31N 35°43' W 000°39'0 0.1
2018-Jun-17 13:17N 35°43' W 000°39'1 5.3
2018-Jun-17 13:00N 35°43' W 000°37'1212.3
2018-Jun-17 12:02N 35°55' W 000°40'0 0.7
2018-Jun-17 11:54N 35°55' W 000°40'13 2.8
2018-Jun-17 07:28N 35°43' W 000°39'21 9.8
2018-Jun-17 05:18N 35°52' W 001°03'814.1
2018-Jun-17 04:42N 35°53' W 001°13'2314.5
2018-Jun-17 03:08N 36°02' W 001°38'414.8
2018-Jun-17 02:53N 36°04' W 001°42'614.9
2018-Jun-17 02:28N 36°07' W 001°49'714.9
2018-Jun-17 01:59N 36°11' W 001°57'815.2
2018-Jun-17 01:29N 36°14' W 002°05'  
2018-Jun-14 00:16N 35°53' W 000°51'413.7
2018-Jun-14 00:00N 35°52' W 000°47'713.5
2018-Jun-13 23:30N 35°50' W 000°39'8 4.1
2018-Jun-13 21:35N 35°43' W 000°39'0 0.0
2018-Jun-13 21:30N 35°43' W 000°39'0 0.0
2018-Jun-13 20:57N 35°43' W 000°39'0 0.0
2018-Jun-13 20:30N 35°43' W 000°39'0 0.0
2018-Jun-13 20:00N 35°43' W 000°39'0 0.0
2018-Jun-13 17:20N 35°43' W 000°39'0 0.0
2018-Jun-13 16:59N 35°43' W 000°39'0 0.0
2018-Jun-13 16:30N 35°43' W 000°39'0 0.0
2018-Jun-13 16:00N 35°43' W 000°39'0 0.0
2018-Jun-13 15:30N 35°43' W 000°39'  
Track history (hours):
 
Tides and Currents Weather Stations Pressure Air Temp Water Temp Dewpoint Dewpoint Depression Visibility Wind Speed Wind Dir Waves Ship Positions

Las Palmasde Grancan

Last reported at 2018-Jun-17 21:25 UTC. Time now 2018-Jun-24 04:52 UTC.
Position N 35°51' W 000°39'.

Length 117 m; draft 4.8 m.

Type: Passenger vessel. MMSI: 224646000.

Date/timePositionNaut miles runAvg speedWind from/ knotsBaromVisibWave heightAir tempDewpointWater temp
2018-Jun-17 21:25N 35°51' W 000°39'513.0
2018-Jun-17 21:00N 35°46' W 000°37'4 6.8
2018-Jun-17 20:29N 35°43' W 000°39'0 0.0
2018-Jun-17 20:00N 35°43' W 000°39'0 0.0
2018-Jun-17 19:30N 35°43' W 000°39'0 0.0
2018-Jun-17 19:00N 35°43' W 000°39'0 0.0
2018-Jun-17 18:31N 35°43' W 000°39'0 0.0
2018-Jun-17 18:00N 35°43' W 000°39'0 0.0
2018-Jun-17 15:22N 35°43' W 000°39'0 0.0
2018-Jun-17 14:54N 35°43' W 000°39'0 0.0
2018-Jun-17 14:31N 35°43' W 000°39'0 0.1
2018-Jun-17 13:17N 35°43' W 000°39'1 5.3
2018-Jun-17 13:00N 35°43' W 000°37'1212.3
2018-Jun-17 12:02N 35°55' W 000°40'0 0.7
2018-Jun-17 11:54N 35°55' W 000°40'13 2.8
2018-Jun-17 07:28N 35°43' W 000°39'21 9.8
2018-Jun-17 05:18N 35°52' W 001°03'814.1
2018-Jun-17 04:42N 35°53' W 001°13'2314.5
2018-Jun-17 03:08N 36°02' W 001°38'414.8
2018-Jun-17 02:53N 36°04' W 001°42'614.9
2018-Jun-17 02:28N 36°07' W 001°49'714.9
2018-Jun-17 01:59N 36°11' W 001°57'815.2
2018-Jun-17 01:29N 36°14' W 002°05'  
2018-Jun-14 00:16N 35°53' W 000°51'413.7
2018-Jun-14 00:00N 35°52' W 000°47'713.5
2018-Jun-13 23:30N 35°50' W 000°39'8 4.1
2018-Jun-13 21:35N 35°43' W 000°39'0 0.0
2018-Jun-13 21:30N 35°43' W 000°39'0 0.0
2018-Jun-13 20:57N 35°43' W 000°39'0 0.0
2018-Jun-13 20:30N 35°43' W 000°39'0 0.0
2018-Jun-13 20:00N 35°43' W 000°39'0 0.0
2018-Jun-13 17:20N 35°43' W 000°39'0 0.0
2018-Jun-13 16:59N 35°43' W 000°39'0 0.0
2018-Jun-13 16:30N 35°43' W 000°39'0 0.0
2018-Jun-13 16:00N 35°43' W 000°39'0 0.0
2018-Jun-13 15:30N 35°43' W 000°39'  

Dump ship's entire track history